Impacts TAF Board
For situational awareness. Not to be used for flight planning purposes.
IDs:

KCLE - Cleveland/Hopkins In, OH, US

Issued at 0204 UTC 10 Dec 2018
Updated at 0348 UTC 10 Dec 2018
Potential Impact None Slight Moderate High
Time<<11/04Z 11/05Z 11/06Z 11/07Z 11/08Z 11/09Z 11/10Z 11/11Z 11/12Z 11/13Z 11/14Z 11/15Z 11/16Z
Type PRVL PRVL
VIS >6 >6
CIG 250 250
Cover BKN BKN
FltCat VFR VFR
WX -- --
WDir 240 240
WSpd 6 6
WGst -- --
Raw TAF
KCLE 100204Z 1002/1106 36004KT P6SM SCT018
  TEMPO 1002/1004 BKN018
  FM100400 33004KT P6SM OVC018
  FM101400 28004KT P6SM OVC020
  FM101800 25006KT P6SM OVC025
  FM102000 24006KT P6SM BKN250


METAR Board
Radar Display
Forecast Discussion
For situational awareness. Not to be used for flight planning purposes.